Time;durP1;ratioP1;P1;durP2;ratioP2;P2;SDS_P1;SDS_P2;PMS_P1;PMS_P2;Temp;Humidity;BMP_temperature;BMP_pressure;BME280_temperature;BME280_humidity;BME280_pressure;Samples;Min_cycle;Max_cycle;Signal;HPM_P1;HPM_P2
2022/01/10 00:00:22;;;;;;;10.18;2.35;;;2.50;99.90;;;;;;5068422;28;20119;-79
2022/01/10 00:02:49;;;;;;;;;;;2.50;99.90;;;;;;5056475;28;20498;-80
2022/01/10 00:05:17;;;;;;;5.43;1.80;;;2.40;99.90;;;;;;5072864;28;20006;-80
2022/01/10 00:07:42;;;;;;;11.70;2.35;;;2.30;99.90;;;;;;5056187;28;20140;-80
2022/01/10 00:10:09;;;;;;;7.95;1.70;;;2.30;99.90;;;;;;5073116;28;20043;-80
2022/01/10 00:12:34;;;;;;;;;;;2.40;99.90;;;;;;5061678;28;20036;-80
2022/01/10 00:15:00;;;;;;;4.80;1.33;;;2.30;99.90;;;;;;5073006;28;20398;-80
2022/01/10 00:17:26;;;;;;;3.72;1.27;;;2.30;99.90;;;;;;5072045;28;20507;-80
2022/01/10 00:19:51;;;;;;;3.00;0.95;;;2.20;99.90;;;;;;5066287;28;20060;-80
2022/01/10 00:22:18;;;;;;;3.80;1.15;;;2.10;99.90;;;;;;5055908;28;20040;-80
2022/01/10 00:24:44;;;;;;;2.67;1.00;;;2.20;99.90;;;;;;5070438;28;20055;-80
2022/01/10 00:27:10;;;;;;;4.45;1.42;;;2.10;99.90;;;;;;5042535;28;20045;-80
2022/01/10 00:29:35;;;;;;;3.70;1.33;;;2.00;99.90;;;;;;5072111;28;20040;-80
2022/01/10 00:32:01;;;;;;;7.40;2.05;;;1.90;99.90;;;;;;5072475;28;20040;-80
2022/01/10 00:34:27;;;;;;;5.00;1.90;;;1.80;99.90;;;;;;5071527;28;20135;-80
2022/01/10 00:36:53;;;;;;;3.60;1.65;;;1.80;99.90;;;;;;5061710;28;20087;-80
2022/01/10 00:39:20;;;;;;;2.97;1.70;;;1.70;99.90;;;;;;5073391;28;20068;-80
2022/01/10 00:41:46;;;;;;;;;;;1.60;99.90;;;;;;5073409;28;20391;-80
2022/01/10 00:44:13;;;;;;;3.63;1.70;;;1.40;99.90;;;;;;5071761;28;19920;-80
2022/01/10 00:46:39;;;;;;;2.80;1.17;;;1.30;99.90;;;;;;5055364;28;20059;-80
2022/01/10 00:49:04;;;;;;;2.65;1.33;;;1.20;99.90;;;;;;5071923;28;20419;-80
2022/01/10 00:51:30;;;;;;;4.38;1.35;;;1.10;99.90;;;;;;5071565;28;20138;-79
2022/01/10 00:53:57;;;;;;;2.10;1.13;;;1.00;99.90;;;;;;5071907;28;20112;-79
2022/01/10 00:56:23;;;;;;;3.35;1.33;;;1.00;99.90;;;;;;5063780;28;20068;-80
2022/01/10 00:58:49;;;;;;;3.58;1.30;;;0.90;99.90;;;;;;5071851;28;20476;-80
2022/01/10 01:01:16;;;;;;;2.15;1.10;;;0.90;99.90;;;;;;5071006;28;20040;-81
2022/01/10 01:03:42;;;;;;;3.53;1.00;;;0.80;99.90;;;;;;5054559;28;20051;-79
2022/01/10 01:06:10;;;;;;;3.08;1.10;;;0.70;99.90;;;;;;5071258;28;20368;-80
2022/01/10 01:08:37;;;;;;;2.83;1.20;;;0.70;99.90;;;;;;5067971;28;20048;-81
2022/01/10 01:11:27;;;;;;;2.45;0.90;;;0.60;99.90;;;;;;5068302;28;20048;-80
2022/01/10 01:13:54;;;;;;;3.08;1.10;;;0.60;99.90;;;;;;5055112;28;20086;-80
2022/01/10 01:24:14;;;;;;;2.90;1.38;;;0.50;99.90;;;;;;5065364;28;20049;-81
2022/01/10 01:26:42;;;;;;;2.42;1.27;;;0.30;99.90;;;;;;5055406;28;20404;-79
2022/01/10 01:29:09;;;;;;;2.22;1.08;;;0.30;99.90;;;;;;5067328;28;20454;-80
2022/01/10 01:31:35;;;;;;;2.78;1.30;;;0.20;99.90;;;;;;5068694;28;20457;-80
2022/01/10 01:34:01;;;;;;;2.50;0.98;;;0.10;99.90;;;;;;5052182;28;20147;-80
2022/01/10 01:36:29;;;;;;;2.10;1.13;;;0.10;99.90;;;;;;5059452;28;20516;-80
2022/01/10 01:38:55;;;;;;;2.28;1.20;;;0.10;99.90;;;;;;5068894;28;20079;-79
2022/01/10 01:43:50;;;;;;;2.25;1.08;;;0.20;99.90;;;;;;5064305;28;20051;-79
2022/01/10 01:46:16;;;;;;;2.90;1.20;;;0.10;99.90;;;;;;5065579;28;20044;-80
2022/01/10 01:48:43;;;;;;;2.70;1.25;;;0.00;99.90;;;;;;5051447;28;20040;-80
2022/01/10 01:51:08;;;;;;;3.95;1.35;;;0.00;99.90;;;;;;5063463;28;20472;-80
2022/01/10 01:53:36;;;;;;;2.13;1.27;;;0.10;99.90;;;;;;5038024;28;20116;-79
2022/01/10 01:56:04;;;;;;;3.03;1.23;;;0.00;99.90;;;;;;5071428;28;21306;-80
2022/01/10 01:58:31;;;;;;;3.80;1.50;;;0.00;99.90;;;;;;5070730;28;20055;-79
2022/01/10 02:00:56;;;;;;;;;;;0.00;99.90;;;;;;5049021;28;20093;-79
2022/01/10 02:03:22;;;;;;;2.30;1.20;;;-0.10;99.90;;;;;;5069485;28;20287;-79
2022/01/10 02:05:48;;;;;;;2.53;1.10;;;-0.20;99.90;;;;;;5071163;28;20028;-79
2022/01/10 02:08:14;;;;;;;2.83;1.35;;;-0.10;99.90;;;;;;5065864;28;20136;-80
2022/01/10 02:10:39;;;;;;;1.98;1.00;;;-0.20;99.90;;;;;;5071213;28;20061;-80
2022/01/10 02:13:05;;;;;;;2.85;1.20;;;-0.20;99.90;;;;;;5070720;28;20036;-80
2022/01/10 02:15:48;;;;;;;2.80;1.20;;;-0.20;99.90;;;;;;5070019;28;20123;-80
2022/01/10 02:18:15;;;;;;;2.28;1.10;;;-0.40;99.90;;;;;;5070186;28;20048;-79
2022/01/10 02:20:41;;;;;;;3.00;1.20;;;-0.30;99.90;;;;;;5067307;28;20115;-80
2022/01/10 02:23:06;;;;;;;2.08;1.00;;;-0.20;99.90;;;;;;5070131;28;20044;-80
2022/01/10 02:25:32;;;;;;;1.35;0.80;;;-0.30;99.90;;;;;;5062854;28;20040;-80
2022/01/10 02:27:59;;;;;;;1.95;1.10;;;-0.40;99.90;;;;;;5051183;28;20068;-79
2022/01/10 02:30:26;;;;;;;1.92;1.08;;;-0.40;99.90;;;;;;5049618;28;20393;-80
2022/01/10 02:32:52;;;;;;;1.83;1.02;;;-0.40;99.90;;;;;;5046621;28;20120;-79
2022/01/10 02:35:23;;;;;;;1.75;1.17;;;-0.30;99.90;;;;;;5058831;28;20037;-80
2022/01/10 02:37:51;;;;;;;2.17;1.10;;;-0.30;99.90;;;;;;5069845;28;20044;-80
2022/01/10 02:40:20;;;;;;;4.32;1.50;;;-0.50;99.90;;;;;;5071296;28;20506;-80
2022/01/10 02:42:46;;;;;;;3.13;1.48;;;-0.40;99.90;;;;;;5060049;28;20049;-79
2022/01/10 02:45:12;;;;;;;;;;;-0.40;99.90;;;;;;5076262;28;20045;-80
2022/01/10 02:47:38;;;;;;;3.63;1.45;;;-0.40;99.90;;;;;;5053472;28;19920;-80
2022/01/10 02:50:05;;;;;;;2.85;1.40;;;-0.30;99.90;;;;;;5067740;28;20051;-79
2022/01/10 02:52:31;;;;;;;3.03;1.70;;;-0.30;99.90;;;;;;5049462;28;20040;-80
2022/01/10 02:55:00;;;;;;;3.42;1.55;;;-0.30;99.90;;;;;;5091999;28;20094;-80
2022/01/10 02:57:26;;;;;;;2.72;1.40;;;-0.20;99.90;;;;;;5066572;28;20124;-81
2022/01/10 02:59:52;;;;;;;;;;;-0.40;99.90;;;;;;5074390;28;20446;-80
2022/01/10 03:02:20;;;;;;;1.98;1.20;;;-0.40;99.90;;;;;;5056582;28;19916;-79
2022/01/10 03:04:46;;;;;;;2.88;1.30;;;-0.40;99.90;;;;;;5054834;28;20049;-80
2022/01/10 03:07:16;;;;;;;2.27;1.10;;;-0.50;99.90;;;;;;5051992;28;20067;-80
2022/01/10 03:09:41;;;;;;;2.65;1.50;;;-0.50;99.90;;;;;;5073037;28;20291;-80
2022/01/10 03:12:09;;;;;;;2.67;1.63;;;-0.50;99.90;;;;;;5071600;28;20034;-81
2022/01/10 03:14:36;;;;;;;3.05;1.33;;;-0.60;99.90;;;;;;5053020;28;20049;-80
2022/01/10 03:17:02;;;;;;;2.72;1.40;;;-0.60;99.90;;;;;;5056369;28;20044;-80
2022/01/10 03:19:27;;;;;;;3.17;1.20;;;-0.60;99.90;;;;;;5057476;28;20448;-80
2022/01/10 03:21:53;;;;;;;2.45;1.33;;;-0.60;99.90;;;;;;5036355;28;20060;-79
2022/01/10 03:24:19;;;;;;;2.65;1.25;;;-0.60;99.90;;;;;;5067921;28;20491;-79
2022/01/10 03:26:45;;;;;;;3.10;1.60;;;-0.60;99.90;;;;;;5067325;28;20071;-80
2022/01/10 03:29:11;;;;;;;1.77;1.30;;;-0.70;99.90;;;;;;5054619;28;20758;-80
2022/01/10 03:31:37;;;;;;;3.20;1.15;;;-0.70;99.90;;;;;;5064349;28;20087;-80
2022/01/10 03:34:02;;;;;;;3.67;1.42;;;-0.70;99.90;;;;;;5058224;28;20045;-80
2022/01/10 03:36:28;;;;;;;4.07;1.80;;;-0.70;99.90;;;;;;5056544;28;20037;-80
2022/01/10 03:38:54;;;;;;;5.13;2.20;;;-0.60;99.90;;;;;;5095929;28;20041;-80
2022/01/10 03:41:19;;;;;;;4.95;2.10;;;-0.50;99.90;;;;;;5073538;28;20040;-80
2022/01/10 03:43:45;;;;;;;3.05;1.40;;;-0.50;99.90;;;;;;5068519;28;20049;-80
2022/01/10 03:46:11;;;;;;;2.10;1.40;;;-0.50;99.90;;;;;;5076814;28;20048;-80
2022/01/10 03:48:37;;;;;;;2.08;1.40;;;-0.50;99.90;;;;;;5073835;28;20037;-80
2022/01/10 03:51:03;;;;;;;2.50;1.40;;;-0.50;99.90;;;;;;5054206;28;20036;-80
2022/01/10 03:53:29;;;;;;;2.15;1.40;;;-0.70;99.90;;;;;;5060667;28;20067;-79
2022/01/10 03:55:55;;;;;;;2.72;1.10;;;-0.70;99.90;;;;;;5069605;28;20479;-80
2022/01/10 03:58:20;;;;;;;1.65;0.90;;;-0.70;99.90;;;;;;5074680;28;20123;-80
2022/01/10 04:00:46;;;;;;;3.28;1.20;;;-0.70;99.90;;;;;;5054941;28;20055;-80
2022/01/10 04:03:12;;;;;;;2.13;1.30;;;-0.80;99.90;;;;;;5053988;28;20047;-71
2022/01/10 04:05:37;;;;;;;2.70;1.50;;;-0.80;99.90;;;;;;5050541;28;20052;-71
2022/01/10 04:08:04;;;;;;;2.58;1.60;;;-0.90;99.90;;;;;;5052959;28;20037;-71
2022/01/10 04:10:30;;;;;;;2.38;1.30;;;-0.90;99.90;;;;;;5046126;28;20503;-70
2022/01/10 04:12:56;;;;;;;3.17;1.52;;;-0.90;99.90;;;;;;5070658;28;20044;-71
2022/01/10 04:15:21;;;;;;;2.20;1.20;;;-1.00;99.90;;;;;;5065751;28;20080;-71
2022/01/10 04:17:54;;;;;;;3.72;1.58;;;-1.00;99.90;;;;;;5064192;28;20041;-71
2022/01/10 04:20:20;;;;;;;3.03;1.30;;;-1.00;99.90;;;;;;5068746;28;20037;-80
2022/01/10 04:22:46;;;;;;;1.83;1.33;;;-1.00;99.90;;;;;;5067426;28;20118;-79
2022/01/10 04:25:11;;;;;;;3.35;1.63;;;-1.10;99.90;;;;;;5052623;28;20041;-79
2022/01/10 04:27:37;;;;;;;3.50;1.73;;;-1.10;99.90;;;;;;5062333;28;20056;-78
2022/01/10 04:30:03;;;;;;;2.95;1.50;;;-1.10;99.90;;;;;;5076888;28;20085;-80
2022/01/10 04:32:31;;;;;;;3.10;1.40;;;-1.10;99.90;;;;;;5093081;28;20089;-79
2022/01/10 04:34:58;;;;;;;3.42;1.50;;;-1.20;99.90;;;;;;5104892;28;20048;-79
2022/01/10 04:37:24;;;;;;;2.50;1.50;;;-1.10;99.90;;;;;;5053262;28;20045;-80
2022/01/10 04:39:49;;;;;;;3.90;2.20;;;-1.20;99.90;;;;;;5069661;28;20465;-79
2022/01/10 04:42:16;;;;;;;4.50;2.33;;;-1.00;99.90;;;;;;5091055;28;20439;-80
2022/01/10 04:44:42;;;;;;;2.92;1.83;;;-1.00;99.90;;;;;;5067555;28;20523;-80
2022/01/10 04:47:08;;;;;;;3.88;1.67;;;-1.00;99.90;;;;;;5053110;28;20119;-80
2022/01/10 04:49:58;;;;;;;3.70;1.73;;;-1.00;99.90;;;;;;5070777;28;20507;-79
2022/01/10 04:52:19;;;;;;;2.33;1.30;;;-1.10;99.90;;;;;;5065814;28;20456;-79
2022/01/10 04:54:45;;;;;;;3.03;1.60;;;-1.20;99.90;;;;;;5051819;28;20119;-79
2022/01/10 04:57:11;;;;;;;3.13;1.80;;;-1.10;99.90;;;;;;5071552;28;20286;-79
2022/01/10 04:59:36;;;;;;;3.28;1.60;;;-1.20;99.90;;;;;;5054137;28;20112;-79
2022/01/10 05:02:02;;;;;;;3.05;1.45;;;-1.20;99.90;;;;;;5071621;28;20434;-79
2022/01/10 05:04:28;;;;;;;3.95;1.70;;;-1.20;99.90;;;;;;5068865;28;20048;-79
2022/01/10 05:06:54;;;;;;;4.55;1.70;;;-1.30;99.90;;;;;;5038476;28;20044;-79
2022/01/10 05:09:20;;;;;;;3.20;1.60;;;-1.40;99.90;;;;;;5054942;28;20044;-79
2022/01/10 05:11:46;;;;;;;3.35;1.58;;;-1.30;99.90;;;;;;5067571;28;20131;-79
2022/01/10 05:14:12;;;;;;;2.45;1.40;;;-1.30;99.90;;;;;;5053740;28;20037;-79
2022/01/10 05:16:40;;;;;;;3.00;1.42;;;-1.30;99.90;;;;;;5051412;28;20033;-79
2022/01/10 05:19:08;;;;;;;2.00;1.30;;;-1.30;99.90;;;;;;5071754;28;20037;-79
2022/01/10 05:21:34;;;;;;;4.47;1.67;;;-1.30;99.90;;;;;;5072438;28;20205;-79
2022/01/10 05:24:00;;;;;;;4.45;2.70;;;-1.30;99.90;;;;;;5070945;28;20522;-79
2022/01/10 05:26:25;;;;;;;5.13;2.35;;;-1.30;99.90;;;;;;5054115;28;20048;-79
2022/01/10 05:28:59;;;;;;;3.25;1.92;;;-1.20;99.90;;;;;;5065278;28;20048;-79
2022/01/10 05:31:25;;;;;;;3.05;1.80;;;-1.20;99.90;;;;;;5063580;28;20044;-79
2022/01/10 05:33:51;;;;;;;4.28;2.03;;;-1.30;99.90;;;;;;5102318;28;20500;-80
2022/01/10 05:36:17;;;;;;;4.00;1.63;;;-1.30;99.90;;;;;;5057091;28;20057;-79
2022/01/10 05:38:42;;;;;;;4.03;1.73;;;-1.40;99.90;;;;;;5068746;28;20068;-79
2022/01/10 05:41:08;;;;;;;4.85;2.00;;;-1.40;99.90;;;;;;5065754;28;20036;-80
2022/01/10 05:43:34;;;;;;;2.72;1.80;;;-1.40;99.90;;;;;;5071656;28;20048;-79
2022/01/10 05:46:00;;;;;;;2.92;1.67;;;-1.40;99.90;;;;;;5042354;28;20042;-79
2022/01/10 05:48:28;;;;;;;4.07;1.83;;;-1.40;99.90;;;;;;5063538;28;20047;-79
2022/01/10 05:50:54;;;;;;;3.20;1.95;;;-1.50;99.90;;;;;;5069452;28;20115;-79
2022/01/10 05:53:20;;;;;;;2.60;1.50;;;-1.50;99.90;;;;;;5054338;28;20107;-78
2022/01/10 05:55:47;;;;;;;2.78;1.52;;;-1.40;99.90;;;;;;5051519;28;20081;-78
2022/01/10 05:58:13;;;;;;;3.55;1.60;;;-1.40;99.90;;;;;;5067408;28;20440;-79
2022/01/10 06:00:39;;;;;;;2.97;1.83;;;-1.40;99.90;;;;;;5053440;28;20510;-79
2022/01/10 06:03:05;;;;;;;4.15;1.80;;;-1.50;99.90;;;;;;5062877;28;20165;-79
2022/01/10 06:05:31;;;;;;;5.32;1.90;;;-1.40;99.90;;;;;;5062494;28;20119;-78
2022/01/10 06:07:58;;;;;;;3.33;1.90;;;-1.50;99.90;;;;;;5044583;28;20488;-79
2022/01/10 06:10:25;;;;;;;3.53;2.10;;;-1.50;99.90;;;;;;5069581;28;20082;-79
2022/01/10 06:12:51;;;;;;;3.35;1.90;;;-1.50;99.90;;;;;;5067623;28;20387;-79
2022/01/10 06:15:17;;;;;;;3.55;1.77;;;-1.50;99.90;;;;;;5065561;28;20147;-78
2022/01/10 06:17:42;;;;;;;3.42;1.92;;;-1.50;99.90;;;;;;5074179;28;20679;-79
2022/01/10 06:20:08;;;;;;;3.22;2.00;;;-1.60;99.90;;;;;;5094863;28;20040;-79
2022/01/10 06:22:34;;;;;;;4.40;1.95;;;-1.60;99.90;;;;;;5041958;28;20567;-79
2022/01/10 06:25:00;;;;;;;3.85;2.00;;;-1.50;99.90;;;;;;5064614;28;20044;-79
2022/01/10 06:27:26;;;;;;;2.92;1.73;;;-1.50;99.90;;;;;;5071034;28;20048;-80
2022/01/10 06:29:52;;;;;;;3.35;1.83;;;-1.50;99.90;;;;;;5046755;28;20048;-77
2022/01/10 06:32:18;;;;;;;4.13;2.10;;;-1.50;99.90;;;;;;5046276;28;20041;-78
2022/01/10 06:34:43;;;;;;;2.65;1.90;;;-1.40;99.90;;;;;;5070308;28;20052;-79
2022/01/10 06:37:09;;;;;;;3.13;2.10;;;-1.50;99.90;;;;;;5050303;28;20041;-78
2022/01/10 06:39:35;;;;;;;5.05;2.25;;;-1.50;99.90;;;;;;5066336;28;20041;-78
2022/01/10 06:42:01;;;;;;;3.38;2.15;;;-1.60;99.90;;;;;;5051146;28;20126;-79
2022/01/10 06:44:26;;;;;;;3.72;2.13;;;-1.70;99.90;;;;;;5038986;28;20066;-79
2022/01/10 06:46:53;;;;;;;4.13;2.20;;;-1.70;99.90;;;;;;5062916;28;20107;-79
2022/01/10 06:49:18;;;;;;;4.63;2.90;;;-1.70;99.90;;;;;;5070414;28;20360;-80
2022/01/10 06:51:44;;;;;;;6.55;3.25;;;-1.70;99.90;;;;;;5060551;28;20041;-79
2022/01/10 06:54:10;;;;;;;7.15;4.22;;;-1.60;99.90;;;;;;5059559;28;20040;-79
2022/01/10 06:56:35;;;;;;;5.77;3.73;;;-1.60;99.90;;;;;;5081233;28;20083;-79
2022/01/10 06:59:02;;;;;;;4.57;3.20;;;-1.50;99.90;;;;;;5073323;28;20622;-80
2022/01/10 07:01:28;;;;;;;5.53;2.90;;;-1.60;99.90;;;;;;5055456;28;20095;-78
2022/01/10 07:03:54;;;;;;;4.28;2.28;;;-1.60;99.90;;;;;;5067683;28;20045;-80
2022/01/10 07:06:20;;;;;;;3.60;2.30;;;-1.70;99.90;;;;;;5054471;28;20464;-79
2022/01/10 07:08:46;;;;;;;4.22;2.63;;;-1.70;99.90;;;;;;5043396;28;20052;-79
2022/01/10 07:11:12;;;;;;;3.70;2.20;;;-1.70;99.90;;;;;;5068549;28;20040;-79
2022/01/10 07:13:37;;;;;;;3.58;2.50;;;-1.70;99.90;;;;;;5055383;28;20540;-79
2022/01/10 07:16:03;;;;;;;7.38;3.78;;;-1.70;99.90;;;;;;5061362;28;20534;-79
2022/01/10 07:18:29;;;;;;;5.82;3.70;;;-1.60;99.90;;;;;;5046353;28;20082;-76
2022/01/10 07:20:55;;;;;;;7.43;3.08;;;-1.60;99.90;;;;;;5042264;28;20044;-78
2022/01/10 07:23:23;;;;;;;5.55;2.70;;;-1.60;99.90;;;;;;5065863;28;20037;-78
2022/01/10 07:25:49;;;;;;;4.57;2.85;;;-1.60;99.90;;;;;;5071725;28;20046;-76
2022/01/10 07:28:15;;;;;;;5.75;3.20;;;-1.70;99.90;;;;;;5067426;28;20041;-77
2022/01/10 07:30:41;;;;;;;5.47;3.03;;;-1.70;99.90;;;;;;5059403;28;20037;-78
2022/01/10 07:33:07;;;;;;;3.90;2.33;;;-1.80;99.90;;;;;;5038024;28;20093;-76
2022/01/10 07:35:33;;;;;;;5.60;3.50;;;-1.70;99.90;;;;;;5064834;28;20080;-78
2022/01/10 07:37:59;;;;;;;4.68;2.30;;;-1.70;99.90;;;;;;5096545;28;20393;-80
2022/01/10 07:40:25;;;;;;;4.90;2.75;;;-1.70;99.90;;;;;;5049593;28;20036;-78
2022/01/10 07:42:51;;;;;;;4.75;3.03;;;-1.70;99.90;;;;;;5051403;28;20116;-80
2022/01/10 07:45:17;;;;;;;4.65;3.25;;;-1.80;99.90;;;;;;5067765;28;20039;-80
2022/01/10 07:47:43;;;;;;;5.97;3.25;;;-1.80;99.90;;;;;;5066931;28;20036;-78
2022/01/10 07:50:10;;;;;;;5.70;3.13;;;-1.80;99.90;;;;;;5065333;28;20114;-78
2022/01/10 07:52:36;;;;;;;9.95;6.13;;;-1.80;99.90;;;;;;5071843;28;20056;-78
2022/01/10 07:55:03;;;;;;;10.73;5.03;;;-1.80;99.90;;;;;;5071358;28;20564;-77
2022/01/10 07:57:28;;;;;;;8.27;5.05;;;-1.70;99.90;;;;;;5074648;28;20044;-78
2022/01/10 07:59:54;;;;;;;7.70;4.15;;;-1.60;99.90;;;;;;5063257;28;20047;-79
2022/01/10 08:02:21;;;;;;;5.85;3.40;;;-1.50;99.90;;;;;;5033733;28;20047;-78
2022/01/10 08:04:48;;;;;;;6.53;4.05;;;-1.50;99.90;;;;;;5071495;28;20045;-79
2022/01/10 08:07:13;;;;;;;6.78;3.97;;;-1.50;99.90;;;;;;5037529;28;20097;-80
2022/01/10 08:09:39;;;;;;;8.77;4.88;;;-1.50;99.90;;;;;;5073007;28;20050;-79
2022/01/10 08:12:05;;;;;;;7.30;5.10;;;-1.50;99.90;;;;;;5064933;28;20071;-79
2022/01/10 08:14:31;;;;;;;6.15;4.38;;;-1.50;99.90;;;;;;5085894;28;20329;-77
2022/01/10 08:16:58;;;;;;;7.05;4.15;;;-1.50;99.90;;;;;;5053970;28;20036;-77
2022/01/10 08:19:26;;;;;;;7.22;4.60;;;-1.60;99.90;;;;;;5069081;28;20072;-77
2022/01/10 08:21:55;;;;;;;6.05;4.10;;;-1.50;99.90;;;;;;5068896;28;20040;-77
2022/01/10 08:24:22;;;;;;;7.50;4.57;;;-1.50;99.90;;;;;;5060375;28;20102;-77
2022/01/10 08:26:49;;;;;;;5.88;3.70;;;-1.60;99.90;;;;;;5061895;28;20044;-77
2022/01/10 08:29:15;;;;;;;6.22;4.22;;;-1.50;99.90;;;;;;5059809;28;20071;-78
2022/01/10 08:31:41;;;;;;;4.45;3.15;;;-1.50;99.90;;;;;;5063260;28;20055;-78
2022/01/10 08:34:07;;;;;;;4.05;2.95;;;-1.50;99.90;;;;;;5076971;28;20407;-80
2022/01/10 08:36:33;;;;;;;4.70;2.83;;;-1.40;99.90;;;;;;5073444;28;20032;-77
2022/01/10 08:38:59;;;;;;;;;;;-1.40;99.90;;;;;;5082455;28;20048;-77
2022/01/10 08:41:25;;;;;;;9.32;4.47;;;-1.50;99.90;;;;;;5068529;28;20346;-77
2022/01/10 08:43:51;;;;;;;9.02;5.47;;;-1.30;99.90;;;;;;5046324;28;20123;-77
2022/01/10 08:46:16;;;;;;;7.93;4.40;;;-1.20;99.90;;;;;;5070555;28;20128;-77
2022/01/10 08:48:42;;;;;;;7.72;4.72;;;-1.20;99.90;;;;;;5070468;28;20048;-76
2022/01/10 08:51:08;;;;;;;9.10;5.63;;;-1.00;99.90;;;;;;5071602;28;20132;-76
2022/01/10 08:53:34;;;;;;;11.48;6.93;;;-0.80;99.90;;;;;;5070190;28;20472;-78
2022/01/10 08:56:00;;;;;;;9.23;6.00;;;-0.70;99.90;;;;;;5064803;28;20043;-79
2022/01/10 08:58:32;;;;;;;9.20;5.70;;;-0.70;99.90;;;;;;5052968;28;20652;-78
2022/01/10 09:00:59;;;;;;;14.80;9.50;;;-0.60;99.90;;;;;;5068177;28;20049;-78
2022/01/10 09:03:25;;;;;;;14.00;8.43;;;-0.40;99.90;;;;;;5061098;28;20036;-78
2022/01/10 09:05:50;;;;;;;13.57;7.70;;;-0.20;99.90;;;;;;5056163;28;20041;-78
2022/01/10 09:08:17;;;;;;;7.57;5.63;;;-0.10;99.90;;;;;;5099587;28;20044;-79
2022/01/10 09:10:42;;;;;;;8.35;5.75;;;-0.10;99.90;;;;;;5065617;28;20086;-78
2022/01/10 09:13:09;;;;;;;6.75;4.57;;;0.10;99.90;;;;;;5094691;28;20037;-79
2022/01/10 09:15:37;;;;;;;7.43;4.35;;;0.00;99.90;;;;;;5039075;28;20451;-79
2022/01/10 09:18:03;;;;;;;5.82;4.07;;;0.10;99.90;;;;;;5063702;28;20123;-79
2022/01/10 09:20:29;;;;;;;6.43;4.20;;;0.10;99.90;;;;;;5070194;28;20056;-78
2022/01/10 09:22:55;;;;;;;5.10;3.80;;;0.20;99.90;;;;;;5087970;28;20052;-78
2022/01/10 09:25:22;;;;;;;5.03;3.67;;;0.20;99.90;;;;;;5061177;28;20401;-78
2022/01/10 09:27:49;;;;;;;7.10;4.00;;;0.20;99.90;;;;;;5103721;28;20385;-77
2022/01/10 09:30:15;;;;;;;4.95;3.40;;;0.40;99.90;;;;;;5054684;28;20045;-79
2022/01/10 09:32:41;;;;;;;4.82;3.33;;;0.40;99.90;;;;;;5046897;28;20518;-78
2022/01/10 09:35:08;;;;;;;7.22;4.05;;;0.40;99.90;;;;;;5068284;28;20055;-80
2022/01/10 09:37:34;;;;;;;;;;;0.50;99.90;;;;;;5071651;28;20044;-78
2022/01/10 09:39:59;;;;;;;7.10;4.95;;;0.60;99.90;;;;;;5066440;28;19921;-78
2022/01/10 09:42:25;;;;;;;6.60;4.47;;;0.50;99.90;;;;;;5071871;28;20373;-79
2022/01/10 09:44:52;;;;;;;8.18;4.93;;;0.60;99.90;;;;;;5067142;28;20044;-78
2022/01/10 09:47:17;;;;;;;8.20;4.70;;;0.60;99.90;;;;;;5053385;28;20078;-78
2022/01/10 09:49:43;;;;;;;5.28;3.78;;;0.70;99.90;;;;;;5067795;28;20086;-79
2022/01/10 09:52:10;;;;;;;5.30;3.72;;;0.70;99.90;;;;;;5072987;28;20456;-78
2022/01/10 09:54:36;;;;;;;8.18;4.82;;;0.80;99.90;;;;;;5068030;28;20074;-78
2022/01/10 09:57:02;;;;;;;8.43;5.82;;;0.90;99.90;;;;;;5064926;28;20083;-78
2022/01/10 09:59:29;;;;;;;6.60;5.18;;;0.90;99.90;;;;;;5060623;28;20044;-79
2022/01/10 10:01:54;;;;;;;14.50;7.25;;;1.10;99.90;;;;;;5090907;28;20037;-78
2022/01/10 10:04:20;;;;;;;8.32;5.47;;;1.10;99.90;;;;;;5062094;28;20037;-80
2022/01/10 10:06:47;;;;;;;5.28;3.83;;;1.10;99.90;;;;;;5063508;28;20041;-81
2022/01/10 10:09:13;;;;;;;6.25;4.72;;;1.20;99.90;;;;;;5085410;28;20052;-81
2022/01/10 10:11:48;;;;;;;7.10;4.82;;;1.30;99.90;;;;;;5044654;28;20123;-79
2022/01/10 10:14:18;;;;;;;6.55;4.25;;;1.30;99.90;;;;;;5054379;28;20140;-79
2022/01/10 10:16:50;;;;;;;8.55;4.63;;;1.30;99.90;;;;;;5053895;28;20037;-79
2022/01/10 10:19:18;;;;;;;8.65;5.90;;;1.40;99.90;;;;;;5070395;28;20618;-79
2022/01/10 10:21:44;;;;;;;11.65;7.72;;;1.50;99.90;;;;;;5054236;28;20049;-79
2022/01/10 10:24:10;;;;;;;10.57;7.93;;;1.60;99.90;;;;;;5068597;28;20053;-79
2022/01/10 10:26:36;;;;;;;10.25;7.10;;;1.70;99.90;;;;;;5068122;28;20415;-80
2022/01/10 10:29:03;;;;;;;8.73;6.30;;;1.70;99.90;;;;;;5054212;28;20052;-79
2022/01/10 10:31:42;;;;;;;7.43;5.60;;;1.80;99.90;;;;;;5055771;28;20472;-79
2022/01/10 10:34:07;;;;;;;9.68;6.15;;;1.80;99.90;;;;;;5054209;28;20072;-79
2022/01/10 10:36:35;;;;;;;9.55;6.30;;;2.00;99.90;;;;;;5066762;28;20197;-79
2022/01/10 10:39:07;;;;;;;10.13;6.72;;;2.00;99.90;;;;;;5070608;28;20067;-79
2022/01/10 10:41:34;;;;;;;11.90;7.78;;;2.00;99.90;;;;;;5069506;28;20066;-79
2022/01/10 10:44:01;;;;;;;12.98;8.70;;;2.10;99.90;;;;;;5050527;28;20052;-79
2022/01/10 10:46:27;;;;;;;;;;;2.20;99.90;;;;;;5070198;28;20173;-79
2022/01/10 10:49:05;;;;;;;9.83;6.60;;;2.30;99.90;;;;;;5088553;28;19924;-79
2022/01/10 10:51:34;;;;;;;12.52;7.45;;;2.40;99.90;;;;;;5050209;28;20063;-80
2022/01/10 10:54:05;;;;;;;11.40;8.10;;;2.60;99.90;;;;;;5061198;28;20033;-79
2022/01/10 10:56:33;;;;;;;11.50;8.07;;;2.90;99.90;;;;;;5064270;28;20041;-79
2022/01/10 10:58:59;;;;;;;14.13;9.27;;;3.20;99.90;;;;;;5069275;28;20044;-79
2022/01/10 11:01:25;;;;;;;11.60;7.85;;;3.50;99.90;;;;;;5035069;28;20508;-79
2022/01/10 11:03:51;;;;;;;11.10;8.10;;;3.60;99.90;;;;;;5051524;28;20037;-80
2022/01/10 11:06:18;;;;;;;18.13;10.85;;;3.90;99.90;;;;;;5056965;28;20049;-80
2022/01/10 11:08:44;;;;;;;12.52;9.13;;;4.00;99.90;;;;;;5060030;28;20168;-80
2022/01/10 11:11:15;;;;;;;16.88;11.20;;;4.20;99.90;;;;;;5069041;28;20522;-80
2022/01/10 11:13:41;;;;;;;17.40;11.00;;;4.20;99.90;;;;;;5064907;28;20612;-71
2022/01/10 11:16:08;;;;;;;;;;;4.30;99.90;;;;;;5067012;28;20039;-72
2022/01/10 11:18:33;;;;;;;15.83;10.27;;;4.50;99.90;;;;;;5071728;28;20031;-71
2022/01/10 11:20:59;;;;;;;16.02;11.75;;;4.60;99.90;;;;;;5064757;28;20151;-71
2022/01/10 11:23:27;;;;;;;16.77;11.13;;;4.80;99.90;;;;;;5068890;28;20041;-71
2022/01/10 11:25:56;;;;;;;22.15;12.88;;;5.00;99.90;;;;;;5066646;28;20055;-71
2022/01/10 11:28:24;;;;;;;17.95;11.77;;;5.20;99.90;;;;;;5051655;28;20051;-71
2022/01/10 11:31:16;;;;;;;15.15;10.73;;;5.20;99.90;;;;;;5057887;28;20051;-71
2022/01/10 11:33:42;;;;;;;18.55;11.50;;;5.50;99.90;;;;;;5064432;28;20063;-71
2022/01/10 11:36:09;;;;;;;15.95;11.20;;;5.50;99.90;;;;;;5061318;28;20037;-72
2022/01/10 11:38:43;;;;;;;15.25;9.68;;;5.70;99.90;;;;;;5053432;28;20052;-71
2022/01/10 11:41:20;;;;;;;18.60;12.23;;;5.80;99.90;;;;;;5086213;28;20036;-72
2022/01/10 11:43:51;;;;;;;16.85;11.85;;;6.10;99.90;;;;;;5054518;28;20080;-72
2022/01/10 11:46:35;;;;;;;18.25;12.57;;;6.30;99.90;;;;;;5057803;28;20795;-71
2022/01/10 11:49:13;;;;;;;21.23;12.38;;;6.30;99.90;;;;;;5071679;28;20098;-73
2022/01/10 11:51:43;;;;;;;26.88;15.98;;;6.50;99.90;;;;;;5069402;28;20163;-73
2022/01/10 11:54:11;;;;;;;24.23;15.77;;;6.50;99.90;;;;;;5065895;28;20032;-72
2022/01/10 11:56:43;;;;;;;19.83;13.57;;;6.40;99.90;;;;;;5068362;28;20090;-72
2022/01/10 11:59:12;;;;;;;24.73;14.05;;;6.70;99.90;;;;;;5058900;28;20036;-72
2022/01/10 12:01:43;;;;;;;20.80;13.13;;;6.80;99.90;;;;;;5051285;28;20044;-72
2022/01/10 12:04:09;;;;;;;19.33;11.88;;;6.80;99.90;;;;;;5070189;28;20175;-71
2022/01/10 12:06:35;;;;;;;19.02;12.88;;;6.80;99.90;;;;;;5067542;28;20116;-71
2022/01/10 12:09:01;;;;;;;;;;;7.00;99.90;;;;;;5069230;28;20457;-71
2022/01/10 12:11:28;;;;;;;18.70;10.60;;;7.00;99.90;;;;;;5064440;28;20051;-72
2022/01/10 12:13:55;;;;;;;23.05;11.20;;;7.10;99.90;;;;;;5060506;28;20049;-72
2022/01/10 12:16:22;;;;;;;21.30;12.57;;;7.10;99.90;;;;;;5054664;28;20089;-72
2022/01/10 12:18:49;;;;;;;17.00;10.63;;;7.20;99.90;;;;;;5071078;28;20044;-71
2022/01/10 12:21:15;;;;;;;17.48;10.82;;;7.10;99.90;;;;;;5066043;28;20044;-71
2022/01/10 12:23:41;;;;;;;;;;;7.30;99.90;;;;;;5058908;28;20131;-73
2022/01/10 12:26:07;;;;;;;25.00;12.02;;;7.30;99.90;;;;;;5034865;28;19928;-73
2022/01/10 12:28:33;;;;;;;17.02;10.23;;;7.40;99.90;;;;;;5037234;28;20480;-70
2022/01/10 12:31:02;;;;;;;16.38;10.18;;;7.40;99.90;;;;;;5058084;28;20062;-71
2022/01/10 12:33:29;;;;;;;17.05;10.20;;;7.40;99.90;;;;;;5054074;28;20135;-71
2022/01/10 12:35:55;;;;;;;16.52;9.30;;;7.50;99.90;;;;;;5060164;28;20033;-71
2022/01/10 12:38:22;;;;;;;12.70;7.90;;;7.50;99.90;;;;;;5051633;28;20190;-71
2022/01/10 12:40:51;;;;;;;14.38;8.40;;;7.70;99.90;;;;;;5062387;28;20033;-71
2022/01/10 12:43:17;;;;;;;13.40;7.28;;;7.80;99.90;;;;;;5064862;28;20036;-70
2022/01/10 12:45:44;;;;;;;13.45;8.07;;;7.80;99.90;;;;;;5049559;28;20076;-70
2022/01/10 12:48:14;;;;;;;13.02;8.13;;;7.80;99.90;;;;;;5052388;28;20049;-70
2022/01/10 12:50:44;;;;;;;12.05;7.88;;;8.00;99.90;;;;;;5049602;28;20044;-70
2022/01/10 12:53:10;;;;;;;12.65;8.27;;;7.90;99.90;;;;;;5064319;28;20434;-71
2022/01/10 12:55:36;;;;;;;16.00;9.20;;;8.10;99.90;;;;;;5053348;28;20045;-71
2022/01/10 12:58:06;;;;;;;15.88;8.73;;;7.90;99.90;;;;;;5061697;28;20073;-71